Time;durP1;ratioP1;P1;durP2;ratioP2;P2;SDS_P1;SDS_P2;PMS_P1;PMS_P2;Temp;Humidity;BMP_temperature;BMP_pressure;BME280_temperature;BME280_humidity;BME280_pressure;Samples;Min_cycle;Max_cycle;Signal;HPM_P1;HPM_P2
2022/10/10 00:02:25;;;;;;;9.55;3.92;;;12.30;66.20;;;;;;5096179;28;20028;-76
2022/10/10 00:04:52;;;;;;;6.07;3.60;;;12.20;66.40;;;;;;5114102;28;20020;-77
2022/10/10 00:07:19;;;;;;;10.82;4.18;;;12.20;66.50;;;;;;5114060;28;20042;-77
2022/10/10 00:09:45;;;;;;;8.15;3.85;;;12.30;66.30;;;;;;5113912;28;20030;-77
2022/10/10 00:12:11;;;;;;;7.53;3.72;;;12.20;66.40;;;;;;5113972;28;20471;-76
2022/10/10 00:14:36;;;;;;;8.35;3.75;;;12.20;66.50;;;;;;5113949;28;20032;-77
2022/10/10 00:17:02;;;;;;;6.55;4.10;;;12.20;66.40;;;;;;5113916;28;20031;-77
2022/10/10 00:19:27;;;;;;;9.40;4.03;;;12.20;66.20;;;;;;5113876;28;20024;-77
2022/10/10 00:21:53;;;;;;;6.88;4.05;;;12.30;66.20;;;;;;5113835;28;20042;-77
2022/10/10 00:24:18;;;;;;;5.50;3.53;;;12.20;66.20;;;;;;5113811;28;20049;-76
2022/10/10 00:26:44;;;;;;;6.38;3.70;;;12.20;66.30;;;;;;5113772;28;20038;-77
2022/10/10 00:29:10;;;;;;;9.85;3.65;;;12.20;66.30;;;;;;5095875;28;20028;-77
2022/10/10 00:31:35;;;;;;;6.78;3.75;;;12.10;66.30;;;;;;5113759;28;20051;-77
2022/10/10 00:34:01;;;;;;;7.40;3.65;;;12.20;66.30;;;;;;5113705;28;20039;-77
2022/10/10 00:36:27;;;;;;;5.95;3.50;;;12.10;66.40;;;;;;5095717;28;20031;-77
2022/10/10 00:38:52;;;;;;;6.18;3.58;;;12.00;66.50;;;;;;5113629;28;20024;-77
2022/10/10 00:41:18;;;;;;;8.25;3.65;;;12.00;66.80;;;;;;5113588;28;20028;-77
2022/10/10 00:44:00;;;;;;;6.13;3.35;;;12.00;66.70;;;;;;5095715;28;20036;-77
2022/10/10 00:46:26;;;;;;;6.68;3.65;;;12.00;67.90;;;;;;5113402;28;20128;-77
2022/10/10 00:48:51;;;;;;;7.28;3.60;;;11.90;66.90;;;;;;5113525;28;20032;-77
2022/10/10 00:51:18;;;;;;;6.20;3.60;;;12.00;67.00;;;;;;5113433;28;20036;-77
2022/10/10 00:53:50;;;;;;;5.38;3.40;;;11.90;67.10;;;;;;5095457;28;20119;-77
2022/10/10 00:56:20;;;;;;;5.85;3.80;;;11.80;67.00;;;;;;5095608;28;20028;-77
2022/10/10 00:58:50;;;;;;;9.60;4.10;;;11.60;66.90;;;;;;5095462;28;20016;-77
2022/10/10 01:01:16;;;;;;;8.10;3.78;;;11.60;67.40;;;;;;5113574;28;20039;-77
2022/10/10 01:03:41;;;;;;;6.88;3.70;;;11.50;67.60;;;;;;5095616;28;20036;-77
2022/10/10 01:06:08;;;;;;;5.65;3.40;;;11.40;67.70;;;;;;5113351;28;20083;-77
2022/10/10 01:08:34;;;;;;;7.68;4.00;;;11.40;67.50;;;;;;5113354;28;20032;-77
2022/10/10 01:11:38;;;;;;;6.22;3.60;;;11.40;67.70;;;;;;5095358;28;20110;-77
2022/10/10 01:14:15;;;;;;;5.50;3.17;;;11.40;67.60;;;;;;5113306;28;20028;-77
2022/10/10 01:17:04;;;;;;;5.43;3.08;;;11.30;67.60;;;;;;5113422;28;20025;-77
2022/10/10 01:19:29;;;;;;;5.70;3.67;;;11.30;67.80;;;;;;5113298;28;20020;-76
2022/10/10 01:22:05;;;;;;;5.40;3.10;;;11.20;67.90;;;;;;5113205;28;20028;-77
2022/10/10 01:24:55;;;;;;;6.40;3.65;;;11.20;68.20;;;;;;5113236;28;20024;-76
2022/10/10 01:27:51;;;;;;;6.05;3.72;;;11.20;68.30;;;;;;5113234;28;20028;-77
2022/10/10 01:30:22;;;;;;;4.40;3.35;;;11.20;68.10;;;;;;5111776;28;20088;-77
2022/10/10 01:32:52;;;;;;;6.57;3.47;;;11.20;68.40;;;;;;5113278;28;20020;-76
2022/10/10 01:35:36;;;;;;;6.05;3.30;;;11.20;68.70;;;;;;5113136;28;20019;-77
2022/10/10 01:38:19;;;;;;;5.65;3.60;;;11.10;68.80;;;;;;5113110;28;20056;-77
2022/10/10 01:41:09;;;;;;;6.68;4.00;;;11.10;69.00;;;;;;5113087;28;20020;-77
2022/10/10 01:43:36;;;;;;;5.75;3.30;;;11.10;69.20;;;;;;5113187;28;20106;-77
2022/10/10 01:46:14;;;;;;;6.40;3.42;;;11.10;69.30;;;;;;5112986;28;20020;-76
2022/10/10 01:48:40;;;;;;;5.60;3.53;;;11.10;69.20;;;;;;5115787;28;20034;-77
2022/10/10 01:51:33;;;;;;;5.95;3.30;;;11.00;69.40;;;;;;5098659;28;20051;-77
2022/10/10 01:53:59;;;;;;;;;;;11.00;69.60;;;;;;5099013;28;20077;-77
2022/10/10 01:56:39;;;;;;;5.35;3.17;;;11.00;69.50;;;;;;5116739;28;20033;-77
2022/10/10 01:59:45;;;;;;;6.43;3.63;;;11.00;69.80;;;;;;5116573;28;20027;-76
2022/10/10 02:02:33;;;;;;;7.78;3.47;;;10.90;70.10;;;;;;5116524;28;20031;-77
2022/10/10 02:05:22;;;;;;;7.18;3.85;;;10.80;70.40;;;;;;5116420;28;20032;-77
2022/10/10 02:08:08;;;;;;;6.15;3.33;;;10.90;70.60;;;;;;5116455;28;20042;-77
2022/10/10 02:10:39;;;;;;;5.82;3.38;;;10.90;70.50;;;;;;5116307;28;20034;-76
2022/10/10 02:13:09;;;;;;;7.70;3.63;;;10.90;70.50;;;;;;5116274;28;20016;-77
2022/10/10 02:15:42;;;;;;;7.80;4.13;;;10.90;70.40;;;;;;5116230;28;20087;-76
2022/10/10 02:18:10;;;;;;;5.32;3.65;;;10.90;70.40;;;;;;5116239;28;20052;-77
2022/10/10 02:20:36;;;;;;;5.97;3.53;;;10.90;70.00;;;;;;5116171;28;20031;-76
2022/10/10 02:23:02;;;;;;;5.63;3.50;;;10.90;69.80;;;;;;5116258;28;20106;-77
2022/10/10 02:25:31;;;;;;;6.75;3.85;;;10.90;70.00;;;;;;5098068;28;20016;-77
2022/10/10 02:28:12;;;;;;;7.18;3.75;;;10.90;69.80;;;;;;5115871;28;20024;-76
2022/10/10 02:30:43;;;;;;;5.72;3.67;;;10.90;69.60;;;;;;5115839;28;20020;-77
2022/10/10 02:33:09;;;;;;;6.50;3.45;;;10.90;69.40;;;;;;5115920;28;20466;-77
2022/10/10 02:35:40;;;;;;;5.32;3.30;;;10.90;69.60;;;;;;5115850;28;20020;-76
2022/10/10 02:38:08;;;;;;;4.63;3.15;;;10.90;69.60;;;;;;5115982;28;20024;-76
2022/10/10 02:40:35;;;;;;;8.40;3.72;;;10.80;69.40;;;;;;5115736;28;20094;-77
2022/10/10 02:43:06;;;;;;;8.13;3.55;;;10.70;69.60;;;;;;5115698;28;20020;-77
2022/10/10 02:45:32;;;;;;;6.97;3.58;;;10.80;69.80;;;;;;5115712;28;20020;-77
2022/10/10 02:48:01;;;;;;;7.50;3.75;;;10.80;69.60;;;;;;5097686;28;20054;-77
2022/10/10 02:50:28;;;;;;;7.45;3.75;;;10.80;69.40;;;;;;5115583;28;20032;-77
2022/10/10 02:52:55;;;;;;;5.28;3.70;;;10.70;69.50;;;;;;5115329;28;20069;-77
2022/10/10 02:55:21;;;;;;;7.60;3.63;;;10.50;69.40;;;;;;5115418;28;20020;-77
2022/10/10 02:57:46;;;;;;;7.55;3.65;;;10.60;69.40;;;;;;5115390;28;20032;-77
2022/10/10 03:00:13;;;;;;;5.40;3.30;;;10.50;69.30;;;;;;5114316;28;20059;-77
2022/10/10 03:02:38;;;;;;;5.90;3.47;;;10.50;69.40;;;;;;5097447;28;20024;-77
2022/10/10 03:05:04;;;;;;;6.68;3.53;;;10.50;69.40;;;;;;5115227;28;20039;-77
2022/10/10 03:07:30;;;;;;;6.70;3.88;;;10.40;69.60;;;;;;5115191;28;20038;-77
2022/10/10 03:09:56;;;;;;;7.53;3.50;;;10.30;70.00;;;;;;5097260;28;20107;-77
2022/10/10 03:12:21;;;;;;;6.57;3.50;;;10.30;70.50;;;;;;5097223;28;20100;-77
2022/10/10 03:14:47;;;;;;;6.85;3.95;;;10.30;70.60;;;;;;5097087;28;20510;-77
2022/10/10 03:17:13;;;;;;;9.80;3.47;;;10.40;70.60;;;;;;5115029;28;20030;-77
2022/10/10 03:19:38;;;;;;;4.93;3.58;;;10.40;70.40;;;;;;5115018;28;20028;-77
2022/10/10 03:22:04;;;;;;;9.45;4.15;;;10.30;70.60;;;;;;5115027;28;20032;-76
2022/10/10 03:24:30;;;;;;;5.60;3.53;;;10.20;70.80;;;;;;5115180;28;20035;-76
2022/10/10 03:26:55;;;;;;;7.25;3.88;;;10.20;70.80;;;;;;5114932;28;20067;-76
2022/10/10 03:29:21;;;;;;;6.68;3.67;;;10.20;70.80;;;;;;5114806;28;20050;-77
2022/10/10 03:31:47;;;;;;;6.47;3.58;;;10.20;70.90;;;;;;5114743;28;20076;-76
2022/10/10 03:34:12;;;;;;;6.65;3.63;;;10.20;70.80;;;;;;5114773;28;20035;-77
2022/10/10 03:36:38;;;;;;;7.50;4.13;;;10.30;71.00;;;;;;5114749;28;20089;-77
2022/10/10 03:39:04;;;;;;;6.50;3.40;;;10.30;71.00;;;;;;5114713;28;20054;-76
2022/10/10 03:41:30;;;;;;;6.00;3.97;;;10.30;70.70;;;;;;5114639;28;20028;-76
2022/10/10 03:43:56;;;;;;;10.85;4.18;;;10.30;70.80;;;;;;5114631;28;20096;-77
2022/10/10 03:46:21;;;;;;;6.88;3.40;;;10.30;70.70;;;;;;5114569;28;20032;-76
2022/10/10 03:48:47;;;;;;;5.55;3.30;;;10.30;70.90;;;;;;5114402;28;20057;-77
2022/10/10 03:51:13;;;;;;;6.00;4.00;;;10.30;70.60;;;;;;5114382;28;20035;-76
2022/10/10 03:53:38;;;;;;;5.38;3.47;;;10.30;70.60;;;;;;5114179;28;20044;-77
2022/10/10 03:56:05;;;;;;;6.13;3.80;;;10.30;71.00;;;;;;5114435;28;20020;-77
2022/10/10 03:58:30;;;;;;;5.07;3.22;;;10.30;71.20;;;;;;5114328;28;20024;-77
2022/10/10 04:00:58;;;;;;;10.95;4.00;;;10.30;71.60;;;;;;5114263;28;20077;-76
2022/10/10 04:03:24;;;;;;;7.30;3.95;;;10.30;71.70;;;;;;5114332;28;20058;-77
2022/10/10 04:05:50;;;;;;;8.85;4.10;;;10.30;71.80;;;;;;5114098;28;20029;-77
2022/10/10 04:08:16;;;;;;;5.13;3.50;;;10.30;71.80;;;;;;5114100;28;20058;-76
2022/10/10 04:10:42;;;;;;;5.63;3.60;;;10.30;72.00;;;;;;5113713;28;20032;-77
2022/10/10 04:13:07;;;;;;;6.28;3.38;;;10.30;71.80;;;;;;5113982;28;20031;-77
2022/10/10 04:15:33;;;;;;;9.35;4.00;;;10.20;71.40;;;;;;5113978;28;20028;-77
2022/10/10 04:17:59;;;;;;;5.70;3.63;;;10.20;71.40;;;;;;5114038;28;20028;-76
2022/10/10 04:20:25;;;;;;;8.52;4.00;;;10.20;71.40;;;;;;5113893;28;20024;-76
2022/10/10 04:22:51;;;;;;;8.73;3.50;;;10.30;71.30;;;;;;5113995;28;20048;-76
2022/10/10 04:25:17;;;;;;;6.75;3.78;;;10.30;71.40;;;;;;5113925;28;20031;-77
2022/10/10 04:27:42;;;;;;;8.35;3.92;;;10.30;71.50;;;;;;5113879;28;20032;-76
2022/10/10 04:30:09;;;;;;;7.07;3.97;;;10.30;71.40;;;;;;5113667;28;20047;-76
2022/10/10 04:32:35;;;;;;;6.40;3.63;;;10.30;71.50;;;;;;5113729;28;20020;-77
2022/10/10 04:35:01;;;;;;;5.82;3.60;;;10.30;71.90;;;;;;5113740;28;20084;-77
2022/10/10 04:37:27;;;;;;;5.72;3.60;;;10.30;72.00;;;;;;5113785;28;20031;-77
2022/10/10 04:39:52;;;;;;;4.95;3.35;;;10.30;72.10;;;;;;5095817;28;20028;-76
2022/10/10 04:42:18;;;;;;;6.20;3.63;;;10.30;71.70;;;;;;5096017;28;20028;-76
2022/10/10 04:44:43;;;;;;;7.22;3.53;;;10.20;71.30;;;;;;5095883;28;20032;-77
2022/10/10 04:47:09;;;;;;;6.95;3.75;;;10.20;71.50;;;;;;5113560;28;20028;-76
2022/10/10 04:49:35;;;;;;;4.97;3.33;;;10.10;72.00;;;;;;5095680;28;20032;-76
2022/10/10 04:52:00;;;;;;;7.63;3.28;;;10.20;72.10;;;;;;5113481;28;20032;-76
2022/10/10 04:54:26;;;;;;;8.02;4.25;;;10.10;72.10;;;;;;5113477;28;20028;-76
2022/10/10 04:56:51;;;;;;;6.43;3.30;;;10.20;72.20;;;;;;5113462;28;20016;-76
2022/10/10 04:59:17;;;;;;;7.38;3.55;;;10.10;72.20;;;;;;5113433;28;20154;-77
2022/10/10 05:01:43;;;;;;;6.40;3.50;;;10.00;72.30;;;;;;5113429;28;20024;-77
2022/10/10 05:04:08;;;;;;;6.18;3.40;;;10.00;72.30;;;;;;5095673;28;20028;-77
2022/10/10 05:06:34;;;;;;;8.63;3.53;;;10.00;72.20;;;;;;5113410;28;20065;-77
2022/10/10 05:09:00;;;;;;;5.85;3.53;;;10.00;72.10;;;;;;5113333;28;20475;-77
2022/10/10 05:11:25;;;;;;;7.78;3.72;;;9.90;72.40;;;;;;5113291;28;20051;-77
2022/10/10 05:13:51;;;;;;;8.05;3.63;;;9.90;72.40;;;;;;5095478;28;20036;-76
2022/10/10 05:16:17;;;;;;;7.43;3.72;;;9.90;72.40;;;;;;5113413;28;20027;-77
2022/10/10 05:18:42;;;;;;;7.45;3.83;;;9.80;72.70;;;;;;5113556;28;20052;-76
2022/10/10 05:21:10;;;;;;;7.20;3.83;;;9.80;72.70;;;;;;5113228;28;20028;-76
2022/10/10 05:23:37;;;;;;;7.63;3.80;;;9.70;72.70;;;;;;5116134;28;20028;-76
2022/10/10 05:26:03;;;;;;;6.07;3.63;;;9.70;73.00;;;;;;5117247;28;20499;-76
2022/10/10 05:28:30;;;;;;;6.38;3.80;;;9.60;72.90;;;;;;5099281;28;20020;-76
2022/10/10 05:30:55;;;;;;;6.22;3.42;;;9.60;73.00;;;;;;5116993;28;20039;-76
2022/10/10 05:33:21;;;;;;;6.18;3.72;;;9.60;73.10;;;;;;5117062;28;20044;-77
2022/10/10 05:35:46;;;;;;;8.82;3.90;;;9.60;73.10;;;;;;5117010;28;20044;-77
2022/10/10 05:38:12;;;;;;;6.63;4.10;;;9.60;73.00;;;;;;5116926;28;20089;-77
2022/10/10 05:40:39;;;;;;;7.07;3.55;;;9.70;73.00;;;;;;5116992;28;20035;-77
2022/10/10 05:43:05;;;;;;;6.30;3.80;;;9.80;73.60;;;;;;5116866;28;20475;-77
2022/10/10 05:45:31;;;;;;;6.10;3.75;;;9.80;72.60;;;;;;5116829;28;20088;-77
2022/10/10 05:47:56;;;;;;;10.68;4.57;;;10.00;72.50;;;;;;5098791;28;20031;-77
2022/10/10 05:50:28;;;;;;;8.07;4.32;;;10.00;72.40;;;;;;5116683;28;20036;-77
2022/10/10 05:52:53;;;;;;;8.00;3.85;;;10.00;72.30;;;;;;5116503;28;20073;-78
2022/10/10 05:55:19;;;;;;;8.55;4.40;;;9.90;72.30;;;;;;5116653;28;20073;-76
2022/10/10 05:57:45;;;;;;;6.20;4.30;;;9.90;72.40;;;;;;5116734;28;20024;-76
2022/10/10 06:00:11;;;;;;;7.55;3.25;;;9.90;73.30;;;;;;5116570;28;20077;-76
2022/10/10 06:02:36;;;;;;;7.22;3.88;;;9.90;72.50;;;;;;5116513;28;20045;-77
2022/10/10 06:05:03;;;;;;;7.45;4.20;;;9.90;72.50;;;;;;5116418;28;20028;-76
2022/10/10 06:07:29;;;;;;;9.90;4.03;;;9.80;72.40;;;;;;5116392;28;20024;-77
2022/10/10 06:09:54;;;;;;;5.30;3.22;;;9.80;72.40;;;;;;5116252;28;20092;-76
2022/10/10 06:12:20;;;;;;;8.38;4.07;;;9.80;72.40;;;;;;5098333;28;20043;-77
2022/10/10 06:14:46;;;;;;;8.07;3.70;;;9.80;72.40;;;;;;5116245;28;20391;-77
2022/10/10 06:17:11;;;;;;;5.72;3.60;;;9.80;72.40;;;;;;5116219;28;20043;-77
2022/10/10 06:19:37;;;;;;;6.95;3.83;;;9.80;72.60;;;;;;5116197;28;20027;-76
2022/10/10 06:22:02;;;;;;;8.68;4.22;;;9.70;72.70;;;;;;5098172;28;20043;-76
2022/10/10 06:24:28;;;;;;;8.68;4.22;;;9.70;73.00;;;;;;5116033;28;20020;-77
2022/10/10 06:26:54;;;;;;;12.50;3.88;;;9.70;73.20;;;;;;5116017;28;20024;-77
2022/10/10 06:29:19;;;;;;;10.00;5.47;;;9.80;73.30;;;;;;5115888;28;20032;-77
2022/10/10 06:31:45;;;;;;;8.60;5.43;;;9.80;73.50;;;;;;5115832;28;20036;-77
2022/10/10 06:34:10;;;;;;;10.20;4.70;;;9.80;73.60;;;;;;5098025;28;20035;-77
2022/10/10 06:36:36;;;;;;;11.45;4.97;;;9.80;73.60;;;;;;5097937;28;20035;-77
2022/10/10 06:39:02;;;;;;;8.75;4.10;;;9.80;73.50;;;;;;5097860;28;20031;-77
2022/10/10 06:41:27;;;;;;;6.63;4.10;;;9.90;73.60;;;;;;5115846;28;20039;-76
2022/10/10 06:43:53;;;;;;;7.00;3.88;;;9.90;73.60;;;;;;5115705;28;20121;-76
2022/10/10 06:46:18;;;;;;;9.07;4.10;;;9.90;73.90;;;;;;5115661;28;20035;-76
2022/10/10 06:48:45;;;;;;;10.45;4.53;;;10.00;73.90;;;;;;5115689;28;20087;-77
2022/10/10 06:51:14;;;;;;;7.90;4.10;;;10.10;74.00;;;;;;5097513;28;20058;-76
2022/10/10 06:53:40;;;;;;;8.05;3.60;;;10.10;74.10;;;;;;5115507;28;20040;-75
2022/10/10 06:56:06;;;;;;;7.47;4.43;;;10.20;74.90;;;;;;5115474;28;20049;-76
2022/10/10 06:58:32;;;;;;;9.65;4.57;;;10.20;76.20;;;;;;5115443;28;20052;-76
2022/10/10 07:01:01;;;;;;;9.55;4.63;;;10.20;76.70;;;;;;5115372;28;20020;-76
2022/10/10 07:03:28;;;;;;;10.57;4.65;;;10.30;77.70;;;;;;5115301;28;20024;-76
2022/10/10 07:05:56;;;;;;;11.35;5.22;;;10.20;78.80;;;;;;5097370;28;20522;-75
2022/10/10 07:08:23;;;;;;;10.52;4.82;;;10.20;79.40;;;;;;5115179;28;20032;-76
2022/10/10 07:10:48;;;;;;;9.85;5.13;;;10.30;80.10;;;;;;5115118;28;20105;-76
2022/10/10 07:13:14;;;;;;;11.25;4.78;;;10.30;80.20;;;;;;5097161;28;20036;-76
2022/10/10 07:15:41;;;;;;;12.40;5.10;;;10.30;80.80;;;;;;5115105;28;20020;-76
2022/10/10 07:18:07;;;;;;;8.75;5.00;;;10.40;80.70;;;;;;5115025;28;20020;-76
2022/10/10 07:20:33;;;;;;;10.90;5.25;;;10.50;80.90;;;;;;5114990;28;20059;-75
2022/10/10 07:23:00;;;;;;;10.75;5.45;;;10.60;81.20;;;;;;5114946;28;20051;-76
2022/10/10 07:25:26;;;;;;;10.82;5.65;;;10.70;80.90;;;;;;5115030;28;20032;-76
2022/10/10 07:27:52;;;;;;;12.60;5.28;;;10.80;81.60;;;;;;5114891;28;20024;-76
2022/10/10 07:30:18;;;;;;;10.65;4.75;;;10.90;81.70;;;;;;5096742;28;20036;-76
2022/10/10 07:32:44;;;;;;;8.93;5.40;;;11.00;82.00;;;;;;5114867;28;20016;-75
2022/10/10 07:35:11;;;;;;;10.95;5.75;;;11.10;82.40;;;;;;5114756;28;20028;-76
2022/10/10 07:37:37;;;;;;;8.85;5.57;;;11.20;83.00;;;;;;5114667;28;20022;-77
2022/10/10 07:40:03;;;;;;;8.40;4.85;;;11.20;82.60;;;;;;5096762;28;20031;-76
2022/10/10 07:42:32;;;;;;;10.25;5.25;;;11.30;82.50;;;;;;5114774;28;20020;-76
2022/10/10 07:44:57;;;;;;;8.95;5.35;;;11.40;82.70;;;;;;5096422;28;20031;-77
2022/10/10 07:47:23;;;;;;;8.90;5.00;;;11.50;82.70;;;;;;5115409;28;20028;-77
2022/10/10 07:49:49;;;;;;;10.90;5.07;;;11.60;83.20;;;;;;5115645;28;20092;-77
2022/10/10 07:52:15;;;;;;;11.70;5.90;;;11.70;83.30;;;;;;5115334;28;20024;-76
2022/10/10 07:54:41;;;;;;;9.77;5.38;;;11.80;83.60;;;;;;5097716;28;20039;-76
2022/10/10 07:57:07;;;;;;;13.70;5.53;;;11.90;83.40;;;;;;5114487;28;20024;-77
2022/10/10 07:59:32;;;;;;;12.10;5.80;;;12.00;83.70;;;;;;5114573;28;20099;-77
2022/10/10 08:01:58;;;;;;;10.50;6.63;;;12.10;83.70;;;;;;5114776;28;20079;-76
2022/10/10 08:04:24;;;;;;;11.52;5.57;;;12.20;83.60;;;;;;5114523;28;20028;-76
2022/10/10 08:06:49;;;;;;;11.77;5.47;;;12.40;83.70;;;;;;5114299;28;20022;-76
2022/10/10 08:09:15;;;;;;;11.75;5.22;;;12.50;83.60;;;;;;5114160;28;20028;-76
2022/10/10 08:11:41;;;;;;;12.00;5.72;;;12.60;83.00;;;;;;5114171;28;20030;-76
2022/10/10 08:14:06;;;;;;;12.32;5.60;;;12.70;82.80;;;;;;5114085;28;20035;-76
2022/10/10 08:16:32;;;;;;;9.30;5.03;;;12.80;82.30;;;;;;5096049;28;20030;-76
2022/10/10 08:18:58;;;;;;;10.00;5.38;;;12.90;81.90;;;;;;5113988;28;20024;-77
2022/10/10 08:21:24;;;;;;;8.15;4.63;;;13.00;81.90;;;;;;5113951;28;20032;-76
2022/10/10 08:23:49;;;;;;;10.48;4.45;;;13.10;81.80;;;;;;5095971;28;20031;-76
2022/10/10 08:26:17;;;;;;;9.43;5.00;;;13.30;82.40;;;;;;5114059;28;20106;-76
2022/10/10 08:28:43;;;;;;;7.78;4.93;;;13.40;81.80;;;;;;5113870;28;20066;-77
2022/10/10 08:31:14;;;;;;;8.00;4.78;;;13.50;81.20;;;;;;5113925;28;20032;-77
2022/10/10 08:33:41;;;;;;;7.93;4.50;;;13.60;80.40;;;;;;5113944;28;20088;-77
2022/10/10 08:36:19;;;;;;;8.52;4.00;;;13.60;80.60;;;;;;5114059;28;20031;-76
2022/10/10 08:38:46;;;;;;;7.88;3.72;;;13.70;79.70;;;;;;5114287;28;20028;-76
2022/10/10 08:41:24;;;;;;;6.72;4.10;;;13.80;79.80;;;;;;5114021;28;20027;-76
2022/10/10 08:43:59;;;;;;;11.00;4.72;;;13.80;78.50;;;;;;5113750;28;20391;-76
2022/10/10 08:46:49;;;;;;;9.30;4.40;;;13.80;78.20;;;;;;5095695;28;20023;-76
2022/10/10 08:50:05;;;;;;;9.25;4.30;;;13.80;79.00;;;;;;5113734;28;20091;-76
2022/10/10 08:52:37;;;;;;;7.30;4.30;;;13.90;79.30;;;;;;5078167;28;20048;-76
2022/10/10 08:55:12;;;;;;;9.00;4.10;;;14.00;77.90;;;;;;5113567;28;20020;-76
2022/10/10 08:57:58;;;;;;;8.10;4.03;;;14.10;77.30;;;;;;5115017;28;20066;-76
2022/10/10 09:00:28;;;;;;;9.73;4.40;;;14.20;77.50;;;;;;5117610;28;20483;-76
2022/10/10 09:02:59;;;;;;;9.30;4.30;;;14.20;77.70;;;;;;5118235;28;20530;-77
2022/10/10 09:05:40;;;;;;;8.20;3.88;;;14.30;78.60;;;;;;5118311;28;20022;-76
2022/10/10 09:08:17;;;;;;;11.05;4.18;;;14.30;77.00;;;;;;5117838;28;20030;-76
2022/10/10 09:11:06;;;;;;;7.38;4.20;;;14.30;77.00;;;;;;5117746;28;20035;-76
2022/10/10 09:13:38;;;;;;;7.35;4.32;;;14.40;76.90;;;;;;5087480;28;20036;-76
2022/10/10 09:16:32;;;;;;;11.52;4.75;;;14.50;76.90;;;;;;5099359;28;20046;-76
2022/10/10 09:19:06;;;;;;;8.85;4.25;;;14.60;77.00;;;;;;5117352;28;20035;-76
2022/10/10 09:21:35;;;;;;;8.55;4.82;;;14.70;77.40;;;;;;5117376;28;20028;-76
2022/10/10 09:24:35;;;;;;;9.35;4.35;;;14.80;77.00;;;;;;5117334;28;20024;-76
2022/10/10 09:27:04;;;;;;;9.30;4.70;;;14.90;75.60;;;;;;5108799;28;20044;-76
2022/10/10 09:29:37;;;;;;;10.48;4.80;;;15.10;77.50;;;;;;5117140;28;20116;-76
2022/10/10 09:32:08;;;;;;;10.82;4.70;;;15.30;75.80;;;;;;5117181;28;20016;-76
2022/10/10 09:34:53;;;;;;;10.05;4.50;;;15.40;75.50;;;;;;5099094;28;20028;-77
2022/10/10 09:37:28;;;;;;;13.15;4.82;;;15.40;73.80;;;;;;5117016;28;20023;-76
2022/10/10 09:40:01;;;;;;;9.15;4.68;;;15.50;76.00;;;;;;5117197;28;20065;-76
2022/10/10 09:42:35;;;;;;;10.50;4.93;;;15.60;75.90;;;;;;5117010;28;20024;-76
2022/10/10 09:45:02;;;;;;;11.15;4.53;;;15.70;74.20;;;;;;5117002;28;20024;-76
2022/10/10 09:47:28;;;;;;;7.63;4.13;;;15.70;74.40;;;;;;5116851;28;20024;-76
2022/10/10 09:49:54;;;;;;;8.77;4.75;;;15.70;73.80;;;;;;5098801;28;20020;-76
2022/10/10 09:52:29;;;;;;;8.90;4.47;;;15.70;73.60;;;;;;5098605;28;20059;-76
2022/10/10 09:55:01;;;;;;;13.23;4.60;;;15.60;73.30;;;;;;5116856;28;20032;-76
2022/10/10 09:57:38;;;;;;;10.88;4.25;;;15.60;73.30;;;;;;5116640;28;20024;-76
2022/10/10 10:00:19;;;;;;;8.63;4.38;;;15.70;73.80;;;;;;5116797;28;20012;-77
2022/10/10 10:02:49;;;;;;;9.93;4.40;;;15.70;74.10;;;;;;5116541;28;20028;-76
2022/10/10 10:05:33;;;;;;;12.15;4.70;;;15.80;74.90;;;;;;5116460;28;20031;-76
2022/10/10 10:07:59;;;;;;;8.07;4.43;;;15.90;75.60;;;;;;5115986;28;20020;-76
2022/10/10 10:10:26;;;;;;;7.65;4.07;;;16.00;73.90;;;;;;5116311;28;20047;-76
2022/10/10 10:12:54;;;;;;;8.68;4.15;;;16.00;74.00;;;;;;5116356;28;20080;-77
2022/10/10 10:15:25;;;;;;;12.63;4.05;;;16.00;72.80;;;;;;5116689;28;20039;-77
2022/10/10 10:18:10;;;;;;;8.23;4.10;;;16.10;72.70;;;;;;5116421;28;20016;-77
2022/10/10 10:20:40;;;;;;;8.05;3.63;;;16.10;71.90;;;;;;5116395;28;20074;-77
2022/10/10 10:23:21;;;;;;;10.77;4.38;;;16.10;72.40;;;;;;5099243;28;20055;-77
2022/10/10 10:25:59;;;;;;;8.63;4.05;;;16.20;73.20;;;;;;5116424;28;20024;-77
2022/10/10 10:28:25;;;;;;;7.35;4.07;;;16.20;72.80;;;;;;5116063;28;20042;-78
2022/10/10 10:30:56;;;;;;;10.05;4.18;;;16.20;72.70;;;;;;5097984;28;20028;-77
2022/10/10 10:33:47;;;;;;;8.43;3.80;;;16.30;73.60;;;;;;5115952;28;20024;-79
2022/10/10 10:36:26;;;;;;;12.63;4.07;;;16.30;72.80;;;;;;5116049;28;20023;-77
2022/10/10 10:39:01;;;;;;;11.00;4.03;;;16.30;72.90;;;;;;5116003;28;20028;-77
2022/10/10 10:41:52;;;;;;;10.13;4.00;;;16.20;72.60;;;;;;5115937;28;20028;-77
2022/10/10 10:44:34;;;;;;;9.48;4.03;;;16.20;72.70;;;;;;5115770;28;20052;-77
2022/10/10 10:47:18;;;;;;;7.70;3.65;;;16.30;72.50;;;;;;5115744;28;20020;-77
2022/10/10 10:50:17;;;;;;;6.50;3.15;;;16.40;72.40;;;;;;5115811;28;20035;-77
2022/10/10 10:52:58;;;;;;;8.05;3.88;;;16.40;72.00;;;;;;5115523;28;20032;-77
2022/10/10 10:55:37;;;;;;;6.72;3.40;;;16.40;71.50;;;;;;5097646;28;20016;-76
2022/10/10 10:58:40;;;;;;;6.40;3.92;;;16.40;71.30;;;;;;5115525;28;20023;-77
2022/10/10 11:01:30;;;;;;;7.03;3.20;;;16.50;72.40;;;;;;5097455;28;20032;-76
2022/10/10 11:04:02;;;;;;;12.35;3.78;;;16.70;72.40;;;;;;5115370;28;20035;-77
2022/10/10 11:06:55;;;;;;;8.77;3.90;;;16.90;70.90;;;;;;5115307;28;20026;-77
2022/10/10 11:09:50;;;;;;;9.27;3.67;;;17.00;71.30;;;;;;5115319;28;20028;-77
2022/10/10 11:12:45;;;;;;;6.68;3.28;;;17.10;71.00;;;;;;5092810;28;20096;-77
2022/10/10 11:15:25;;;;;;;6.82;3.20;;;17.30;70.10;;;;;;5115212;28;20032;-77
2022/10/10 11:17:57;;;;;;;6.60;3.28;;;17.50;69.40;;;;;;5115265;28;20045;-77
2022/10/10 11:20:45;;;;;;;8.27;3.38;;;17.60;68.60;;;;;;5114208;28;20024;-77
2022/10/10 11:23:31;;;;;;;8.95;3.50;;;17.60;68.80;;;;;;5115066;28;20024;-76
2022/10/10 11:26:09;;;;;;;7.20;3.15;;;17.60;68.70;;;;;;5114918;28;20024;-76
2022/10/10 11:28:43;;;;;;;8.77;3.28;;;17.60;68.70;;;;;;5114803;28;20028;-76
2022/10/10 11:31:22;;;;;;;7.05;3.38;;;17.60;68.90;;;;;;5114729;28;20032;-77
2022/10/10 11:33:53;;;;;;;7.55;3.47;;;17.70;68.50;;;;;;5114879;28;20051;-77
2022/10/10 11:36:23;;;;;;;5.72;3.40;;;17.80;68.40;;;;;;5114648;28;20020;-77
2022/10/10 11:38:55;;;;;;;7.45;2.90;;;17.90;67.70;;;;;;5114715;28;20028;-77
2022/10/10 11:41:30;;;;;;;7.00;3.42;;;18.00;66.50;;;;;;5114824;28;20447;-77
2022/10/10 11:43:59;;;;;;;9.88;3.72;;;18.00;65.10;;;;;;5114763;28;20031;-78
2022/10/10 11:47:07;;;;;;;7.80;3.47;;;18.10;65.80;;;;;;5096649;28;20039;-78
2022/10/10 11:49:57;;;;;;;7.53;4.10;;;18.10;64.30;;;;;;5114635;28;20016;-77
2022/10/10 11:52:47;;;;;;;5.85;2.92;;;18.30;65.60;;;;;;5114290;28;20044;-77
2022/10/10 11:55:52;;;;;;;8.07;3.60;;;18.40;66.30;;;;;;5114361;28;20053;-78
2022/10/10 11:58:37;;;;;;;8.45;3.50;;;18.60;65.70;;;;;;5114493;28;20024;-77
2022/10/10 12:01:11;;;;;;;7.72;3.53;;;18.70;65.60;;;;;;5114466;28;20038;-78
2022/10/10 12:03:37;;;;;;;8.10;3.50;;;18.70;65.30;;;;;;5114235;28;20053;-78
2022/10/10 12:06:16;;;;;;;5.32;3.05;;;18.80;65.10;;;;;;5114176;28;20087;-78
2022/10/10 12:09:14;;;;;;;5.60;2.90;;;18.90;64.40;;;;;;5113984;28;20039;-77
2022/10/10 12:11:44;;;;;;;9.10;3.08;;;19.10;63.80;;;;;;5114104;28;20028;-78
2022/10/10 12:14:15;;;;;;;6.35;2.90;;;19.10;63.20;;;;;;5114053;28;20026;-78
2022/10/10 12:16:41;;;;;;;7.68;3.65;;;19.30;63.30;;;;;;5114071;28;20024;-78
2022/10/10 12:19:20;;;;;;;6.38;3.30;;;19.30;63.20;;;;;;5113965;28;20024;-78
2022/10/10 12:21:56;;;;;;;5.40;2.90;;;19.30;62.20;;;;;;5113941;28;20031;-78
2022/10/10 12:24:25;;;;;;;5.78;3.20;;;19.40;63.40;;;;;;5114084;28;20032;-78
2022/10/10 12:26:56;;;;;;;6.45;3.13;;;19.50;63.20;;;;;;5113897;28;20044;-78
2022/10/10 12:30:08;;;;;;;9.85;3.50;;;19.60;63.20;;;;;;5113832;28;20024;-78
2022/10/10 12:32:45;;;;;;;4.95;3.00;;;19.70;62.20;;;;;;5113353;28;20060;-78
2022/10/10 12:35:40;;;;;;;6.82;2.83;;;19.80;62.10;;;;;;5113859;28;20042;-78
2022/10/10 12:38:13;;;;;;;5.78;3.10;;;19.90;61.80;;;;;;5113694;28;20023;-77
2022/10/10 12:41:13;;;;;;;5.15;3.17;;;20.00;61.90;;;;;;5113649;28;20032;-77
2022/10/10 12:44:19;;;;;;;6.75;3.17;;;20.00;61.70;;;;;;5113803;28;20020;-77
2022/10/10 12:46:48;;;;;;;6.72;3.65;;;20.00;62.40;;;;;;5092025;28;20117;-77
2022/10/10 12:49:19;;;;;;;7.75;3.47;;;20.00;61.30;;;;;;5113599;28;20058;-77
2022/10/10 12:52:18;;;;;;;8.25;3.55;;;19.90;61.30;;;;;;5113438;28;20085;-77
2022/10/10 12:54:45;;;;;;;10.20;3.08;;;19.90;61.60;;;;;;5113069;28;20056;-77
2022/10/10 12:57:17;;;;;;;9.30;3.58;;;19.70;61.90;;;;;;5095780;28;20091;-77
2022/10/10 12:59:43;;;;;;;8.43;3.40;;;19.60;62.10;;;;;;5113527;28;20024;-77
2022/10/10 13:02:20;;;;;;;7.07;3.83;;;19.50;62.10;;;;;;5113451;28;20033;-77
2022/10/10 13:04:47;;;;;;;10.23;3.78;;;19.50;62.90;;;;;;5113453;28;20021;-77
2022/10/10 13:07:17;;;;;;;6.47;3.53;;;19.50;62.90;;;;;;5113392;28;20491;-78
2022/10/10 13:09:45;;;;;;;8.10;3.67;;;19.40;62.90;;;;;;5113384;28;20028;-77